Time;durP1;ratioP1;P1;durP2;ratioP2;P2;SDS_P1;SDS_P2;PMS_P1;PMS_P2;Temp;Humidity;BMP_temperature;BMP_pressure;BME280_temperature;BME280_humidity;BME280_pressure;Samples;Min_cycle;Max_cycle;Signal;HPM_P1;HPM_P2
2023/07/31 00:00:08;;;;;;;5.32;2.25;;;;;;;;;;5009685;28;20029;-71
2023/07/31 00:02:34;;;;;;;4.57;1.80;;;;;;;;;;5009621;28;20037;-72
2023/07/31 00:05:01;;;;;;;3.85;1.90;;;;;;;;;;5008829;28;20030;-71
2023/07/31 00:07:27;;;;;;;3.38;1.67;;;;;;;;;;5009214;28;20105;-72
2023/07/31 00:09:54;;;;;;;3.08;1.80;;;;;;;;;;5009941;28;20116;-72
2023/07/31 00:12:20;;;;;;;2.83;1.52;;;;;;;;;;5009204;28;20030;-73
2023/07/31 00:14:46;;;;;;;3.63;2.28;;;;;;;;;;5009569;28;20117;-72
2023/07/31 00:17:12;;;;;;;4.53;2.53;;;;;;;;;;5009992;28;20401;-73
2023/07/31 00:19:38;;;;;;;4.97;2.30;;;;;;;;;;5009099;28;20112;-73
2023/07/31 00:22:04;;;;;;;4.03;1.85;;;;;;;;;;5009644;28;20087;-71
2023/07/31 00:24:30;;;;;;;3.90;2.50;;;;;;;;;;5008899;28;20037;-72
2023/07/31 00:26:56;;;;;;;4.35;2.45;;;;;;;;;;5008858;28;20026;-72
2023/07/31 00:29:22;;;;;;;4.25;2.35;;;;;;;;;;5009083;28;20655;-72
2023/07/31 00:31:48;;;;;;;3.45;2.08;;;;;;;;;;5009527;28;20029;-72
2023/07/31 00:34:14;;;;;;;3.55;1.75;;;;;;;;;;5009129;28;20179;-72
2023/07/31 00:36:40;;;;;;;4.30;2.25;;;;;;;;;;5000493;28;20041;-72
2023/07/31 00:39:06;;;;;;;4.82;1.88;;;;;;;;;;5009489;28;20026;-73
2023/07/31 00:41:32;;;;;;;3.25;1.83;;;;;;;;;;5009486;28;20032;-71
2023/07/31 00:43:58;;;;;;;4.95;2.10;;;;;;;;;;4991826;28;20030;-71
2023/07/31 00:46:24;;;;;;;4.68;2.50;;;;;;;;;;5009205;28;20493;-71
2023/07/31 00:48:50;;;;;;;6.28;3.05;;;;;;;;;;5009110;28;20053;-71
2023/07/31 00:51:17;;;;;;;8.48;3.85;;;;;;;;;;5008552;28;20694;-72
2023/07/31 00:53:43;;;;;;;7.82;3.75;;;;;;;;;;5008887;28;20037;-72
2023/07/31 00:56:09;;;;;;;10.80;5.28;;;;;;;;;;5009050;28;20040;-72
2023/07/31 00:58:35;;;;;;;14.45;6.28;;;;;;;;;;5008192;28;20085;-71
2023/07/31 01:01:02;;;;;;;12.13;6.50;;;;;;;;;;5008634;28;20117;-72
2023/07/31 01:03:28;;;;;;;14.55;5.97;;;;;;;;;;5008982;28;20034;-72
2023/07/31 01:05:56;;;;;;;28.30;11.43;;;;;;;;;;5008783;28;20029;-73
2023/07/31 01:08:38;;;;;;;29.35;13.70;;;;;;;;;;5008468;28;20034;-72
2023/07/31 01:11:18;;;;;;;15.93;7.00;;;;;;;;;;5008551;28;20022;-74
2023/07/31 01:13:45;;;;;;;25.00;11.07;;;;;;;;;;5008733;28;20158;-72
2023/07/31 01:16:11;;;;;;;33.95;12.93;;;;;;;;;;5009090;28;20134;-72
2023/07/31 01:18:37;;;;;;;37.78;16.27;;;;;;;;;;5008428;28;20141;-73
2023/07/31 01:21:22;;;;;;;37.45;17.38;;;;;;;;;;5008039;28;20535;-73
2023/07/31 01:24:08;;;;;;;37.22;14.32;;;;;;;;;;5008843;28;20447;-72
2023/07/31 01:26:35;;;;;;;37.95;14.82;;;;;;;;;;4990452;28;20092;-71
2023/07/31 01:29:07;;;;;;;25.70;11.15;;;;;;;;;;5008872;28;20122;-71
2023/07/31 01:31:33;;;;;;;33.58;12.98;;;;;;;;;;5008475;28;20114;-73
2023/07/31 01:34:03;;;;;;;33.30;13.77;;;;;;;;;;5008875;28;20454;-72
2023/07/31 01:36:30;;;;;;;28.42;12.27;;;;;;;;;;5008867;28;20028;-73
2023/07/31 01:39:00;;;;;;;34.35;13.18;;;;;;;;;;5011447;28;20026;-74
2023/07/31 01:41:26;;;;;;;30.10;10.95;;;;;;;;;;4994545;28;20070;-72
2023/07/31 01:43:52;;;;;;;32.33;12.50;;;;;;;;;;5011918;28;20058;-72
2023/07/31 01:46:18;;;;;;;28.23;9.88;;;;;;;;;;5012395;28;20026;-72
2023/07/31 01:48:44;;;;;;;28.35;11.98;;;;;;;;;;5012047;28;20026;-72
2023/07/31 01:51:10;;;;;;;32.63;13.07;;;;;;;;;;5012011;28;20022;-72
2023/07/31 01:53:36;;;;;;;36.03;14.48;;;;;;;;;;5011504;28;20037;-72
2023/07/31 01:56:02;;;;;;;36.60;15.25;;;;;;;;;;5011799;28;20361;-72
2023/07/31 01:58:28;;;;;;;36.35;13.48;;;;;;;;;;5011433;28;20140;-72
2023/07/31 02:00:54;;;;;;;23.65;12.25;;;;;;;;;;5011738;28;20156;-72
2023/07/31 02:03:20;;;;;;;22.70;10.40;;;;;;;;;;5011467;28;20057;-72
2023/07/31 02:05:46;;;;;;;31.63;12.00;;;;;;;;;;5011510;28;20112;-72
2023/07/31 02:08:12;;;;;;;27.23;10.45;;;;;;;;;;5011384;28;20471;-72
2023/07/31 02:10:38;;;;;;;26.17;11.57;;;;;;;;;;5011672;28;20025;-71
2023/07/31 02:13:04;;;;;;;25.77;10.40;;;;;;;;;;5011442;28;20030;-71
2023/07/31 02:15:31;;;;;;;30.77;10.63;;;;;;;;;;5011271;28;20037;-72
2023/07/31 02:17:57;;;;;;;20.45;9.85;;;;;;;;;;5011259;28;20149;-72
2023/07/31 02:20:23;;;;;;;24.77;10.25;;;;;;;;;;5011441;28;20030;-74
2023/07/31 02:22:49;;;;;;;22.25;10.30;;;;;;;;;;5010907;28;20022;-71
2023/07/31 02:25:15;;;;;;;31.33;11.38;;;;;;;;;;5011492;28;20106;-73
2023/07/31 02:27:41;;;;;;;35.05;13.25;;;;;;;;;;5011792;28;20025;-73
2023/07/31 02:30:07;;;;;;;23.95;10.55;;;;;;;;;;5010757;28;20026;-73
2023/07/31 02:32:33;;;;;;;30.45;10.70;;;;;;;;;;5011282;28;20045;-72
2023/07/31 02:34:59;;;;;;;25.48;10.82;;;;;;;;;;5011317;28;20038;-74
2023/07/31 02:37:26;;;;;;;20.92;8.70;;;;;;;;;;5010515;28;20026;-73
2023/07/31 02:39:52;;;;;;;15.25;6.72;;;;;;;;;;5011577;28;20109;-73
2023/07/31 02:42:18;;;;;;;24.77;10.18;;;;;;;;;;5011806;28;20057;-72
2023/07/31 02:44:44;;;;;;;22.65;9.88;;;;;;;;;;5011270;28;20034;-73
2023/07/31 02:47:10;;;;;;;20.83;9.23;;;;;;;;;;5010914;28;20045;-73
2023/07/31 02:49:36;;;;;;;29.02;11.05;;;;;;;;;;5010748;28;20087;-72
2023/07/31 02:52:02;;;;;;;25.38;10.38;;;;;;;;;;5010827;28;20045;-74
2023/07/31 02:54:28;;;;;;;26.98;10.05;;;;;;;;;;5011272;28;20026;-73
2023/07/31 02:56:54;;;;;;;30.33;11.55;;;;;;;;;;5011208;28;20052;-71
2023/07/31 02:59:21;;;;;;;21.30;9.50;;;;;;;;;;5010984;28;20026;-73
2023/07/31 03:01:46;;;;;;;24.20;10.27;;;;;;;;;;5011456;28;20026;-72
2023/07/31 03:04:13;;;;;;;23.65;8.80;;;;;;;;;;5011088;28;20472;-73
2023/07/31 03:06:39;;;;;;;26.27;8.80;;;;;;;;;;5010197;28;20033;-73
2023/07/31 03:09:05;;;;;;;22.77;10.10;;;;;;;;;;5010812;28;20096;-72
2023/07/31 03:11:31;;;;;;;31.23;11.15;;;;;;;;;;5010370;28;20029;-72
2023/07/31 03:13:57;;;;;;;25.52;10.40;;;;;;;;;;5011153;28;20026;-72
2023/07/31 03:16:23;;;;;;;24.23;10.43;;;;;;;;;;5010289;28;20076;-73
2023/07/31 03:18:49;;;;;;;32.88;10.77;;;;;;;;;;5010127;28;20041;-71
2023/07/31 03:21:15;;;;;;;25.00;9.50;;;;;;;;;;4992797;28;20033;-72
2023/07/31 03:23:41;;;;;;;27.38;9.90;;;;;;;;;;4992852;28;20030;-72
2023/07/31 03:26:07;;;;;;;30.42;10.55;;;;;;;;;;5010428;28;20030;-72
2023/07/31 03:28:34;;;;;;;28.20;10.82;;;;;;;;;;5009870;28;20419;-70
2023/07/31 03:31:00;;;;;;;14.90;7.25;;;;;;;;;;5010615;28;20029;-72
2023/07/31 03:33:26;;;;;;;22.05;9.27;;;;;;;;;;5009805;28;20036;-71
2023/07/31 03:35:53;;;;;;;29.48;9.13;;;;;;;;;;5010012;28;20068;-70
2023/07/31 03:38:19;;;;;;;23.77;9.07;;;;;;;;;;4992135;28;20459;-72
2023/07/31 03:40:45;;;;;;;21.55;7.68;;;;;;;;;;4991932;28;20026;-71
2023/07/31 03:43:12;;;;;;;22.52;10.18;;;;;;;;;;5009942;28;20048;-73
2023/07/31 03:45:38;;;;;;;26.20;9.75;;;;;;;;;;5010207;28;20026;-72
2023/07/31 03:48:04;;;;;;;30.58;9.73;;;;;;;;;;5009658;28;20029;-72
2023/07/31 03:50:31;;;;;;;22.98;8.77;;;;;;;;;;5009927;28;20022;-72
2023/07/31 03:52:56;;;;;;;19.65;8.32;;;;;;;;;;5009750;28;20022;-72
2023/07/31 03:55:22;;;;;;;29.02;9.20;;;;;;;;;;5009195;28;20480;-72
2023/07/31 03:57:48;;;;;;;23.15;9.40;;;;;;;;;;5009676;28;20132;-71
2023/07/31 04:00:14;;;;;;;23.30;7.93;;;;;;;;;;5009038;28;20030;-73
2023/07/31 04:02:40;;;;;;;19.60;8.15;;;;;;;;;;5009496;28;20030;-71
2023/07/31 04:05:07;;;;;;;24.92;8.90;;;;;;;;;;5009785;28;20472;-72
2023/07/31 04:07:33;;;;;;;23.77;8.32;;;;;;;;;;5009695;28;20810;-73
2023/07/31 04:09:59;;;;;;;24.88;9.60;;;;;;;;;;5009841;28;20057;-71
2023/07/31 04:12:25;;;;;;;32.88;9.95;;;;;;;;;;5008982;28;20515;-71
2023/07/31 04:14:51;;;;;;;21.08;8.75;;;;;;;;;;5009173;28;20122;-71
2023/07/31 04:17:18;;;;;;;32.38;10.07;;;;;;;;;;5008722;28;20038;-71
2023/07/31 04:19:44;;;;;;;21.10;8.95;;;;;;;;;;5009249;28;20064;-72
2023/07/31 04:22:10;;;;;;;25.98;8.70;;;;;;;;;;5009402;28;20044;-72
2023/07/31 04:24:36;;;;;;;18.52;7.20;;;;;;;;;;5009213;28;20460;-72
2023/07/31 04:27:02;;;;;;;29.85;9.80;;;;;;;;;;5009057;28;20103;-73
2023/07/31 04:29:28;;;;;;;18.52;8.13;;;;;;;;;;5009170;28;20022;-72
2023/07/31 04:31:54;;;;;;;17.35;6.93;;;;;;;;;;5009433;28;20133;-71
2023/07/31 04:34:20;;;;;;;26.17;8.65;;;;;;;;;;5009465;28;20029;-72
2023/07/31 04:36:46;;;;;;;21.08;8.80;;;;;;;;;;5009071;28;20034;-71
2023/07/31 04:39:12;;;;;;;25.52;8.63;;;;;;;;;;5009480;28;20030;-71
2023/07/31 04:41:38;;;;;;;27.02;8.82;;;;;;;;;;5009324;28;20060;-72
2023/07/31 04:44:04;;;;;;;22.02;9.23;;;;;;;;;;5008946;28;20057;-70
2023/07/31 04:46:30;;;;;;;24.27;8.80;;;;;;;;;;5009803;28;20037;-72
2023/07/31 04:48:57;;;;;;;21.70;8.93;;;;;;;;;;5009687;28;20037;-71
2023/07/31 04:51:23;;;;;;;18.55;7.28;;;;;;;;;;5008938;28;20030;-71
2023/07/31 04:53:49;;;;;;;19.83;7.35;;;;;;;;;;5009655;28;20419;-71
2023/07/31 04:56:15;;;;;;;21.75;7.35;;;;;;;;;;5008645;28;20486;-73
2023/07/31 04:58:41;;;;;;;19.90;7.80;;;;;;;;;;5008606;28;20140;-71
2023/07/31 05:01:08;;;;;;;18.55;7.07;;;;;;;;;;5009594;28;20104;-73
2023/07/31 05:03:33;;;;;;;23.20;8.30;;;;;;;;;;5008586;28;20040;-71
2023/07/31 05:05:59;;;;;;;24.35;8.10;;;;;;;;;;5008664;28;20030;-71
2023/07/31 05:08:25;;;;;;;14.20;6.45;;;;;;;;;;5009245;28;20495;-71
2023/07/31 05:10:52;;;;;;;23.80;9.43;;;;;;;;;;5009288;28;20065;-71
2023/07/31 05:13:18;;;;;;;20.98;7.82;;;;;;;;;;5011410;28;20495;-71
2023/07/31 05:15:44;;;;;;;16.67;7.43;;;;;;;;;;5013356;28;20065;-70
2023/07/31 05:18:11;;;;;;;19.67;8.95;;;;;;;;;;5013200;28;20318;-72
2023/07/31 05:20:37;;;;;;;18.40;8.15;;;;;;;;;;5012425;28;20038;-72
2023/07/31 05:23:03;;;;;;;18.13;7.30;;;;;;;;;;5012897;28;20033;-72
2023/07/31 05:25:29;;;;;;;13.73;6.80;;;;;;;;;;5012996;28;20037;-72
2023/07/31 05:27:55;;;;;;;21.60;9.02;;;;;;;;;;5012594;28;20112;-72
2023/07/31 05:30:21;;;;;;;16.35;6.32;;;;;;;;;;5012483;28;20069;-72
2023/07/31 05:32:47;;;;;;;12.70;5.97;;;;;;;;;;5012371;28;20530;-71
2023/07/31 05:35:13;;;;;;;23.13;8.43;;;;;;;;;;5012364;28;20029;-73
2023/07/31 05:37:39;;;;;;;18.45;7.82;;;;;;;;;;5012483;28;20388;-71
2023/07/31 05:40:05;;;;;;;15.35;6.18;;;;;;;;;;5012572;28;20095;-71
2023/07/31 05:42:31;;;;;;;19.20;7.55;;;;;;;;;;5012981;28;20022;-72
2023/07/31 05:44:57;;;;;;;21.98;9.40;;;;;;;;;;5012370;28;20025;-72
2023/07/31 05:47:23;;;;;;;19.92;7.40;;;;;;;;;;5011623;28;20108;-73
2023/07/31 05:49:52;;;;;;;13.02;5.32;;;;;;;;;;5012416;28;20033;-72
2023/07/31 05:52:18;;;;;;;16.70;7.60;;;;;;;;;;5012242;28;20056;-73
2023/07/31 05:54:45;;;;;;;18.52;7.65;;;;;;;;;;5011733;28;20026;-73
2023/07/31 05:57:12;;;;;;;19.08;7.47;;;;;;;;;;5012000;28;20029;-75
2023/07/31 05:59:38;;;;;;;19.30;7.28;;;;;;;;;;4995022;28;20056;-73
2023/07/31 06:02:04;;;;;;;14.40;6.95;;;;;;;;;;5012258;28;20770;-72
2023/07/31 06:04:30;;;;;;;16.05;6.97;;;;;;;;;;4995027;28;20072;-72
2023/07/31 06:06:57;;;;;;;18.75;8.05;;;;;;;;;;4994563;28;20025;-74
2023/07/31 06:09:23;;;;;;;12.13;6.30;;;;;;;;;;5011624;28;20049;-72
2023/07/31 06:11:50;;;;;;;15.70;7.00;;;;;;;;;;5011738;28;20793;-73
2023/07/31 06:14:16;;;;;;;19.63;8.60;;;;;;;;;;5012289;28;20415;-73
2023/07/31 06:16:43;;;;;;;17.10;6.80;;;;;;;;;;5011740;28;20105;-74
2023/07/31 06:19:09;;;;;;;16.45;6.70;;;;;;;;;;5011768;28;20034;-73
2023/07/31 06:21:37;;;;;;;16.60;7.00;;;;;;;;;;5012153;28;20124;-74
2023/07/31 06:24:03;;;;;;;18.02;7.43;;;;;;;;;;4992882;28;20048;-72
2023/07/31 06:26:29;;;;;;;18.45;7.47;;;;;;;;;;5011470;28;20092;-72
2023/07/31 06:28:55;;;;;;;20.05;7.47;;;;;;;;;;5011105;28;20440;-71
2023/07/31 06:31:22;;;;;;;14.38;6.57;;;;;;;;;;5011092;28;20068;-71
2023/07/31 06:33:49;;;;;;;11.93;5.45;;;;;;;;;;5011735;28;20080;-74
2023/07/31 06:36:15;;;;;;;14.35;5.80;;;;;;;;;;5011186;28;20034;-73
2023/07/31 06:38:41;;;;;;;12.57;5.40;;;;;;;;;;5010945;28;20069;-70
2023/07/31 06:41:10;;;;;;;15.60;6.63;;;;;;;;;;5011264;28;20054;-72
2023/07/31 06:43:36;;;;;;;15.45;6.07;;;;;;;;;;5011458;28;20061;-71
2023/07/31 06:46:06;;;;;;;19.80;7.47;;;;;;;;;;5011193;28;20029;-72
2023/07/31 06:48:32;;;;;;;10.57;5.15;;;;;;;;;;5011297;28;20030;-72
2023/07/31 06:50:58;;;;;;;11.30;4.90;;;;;;;;;;5010751;28;20092;-73
2023/07/31 06:53:24;;;;;;;10.55;4.60;;;;;;;;;;5010692;28;20030;-73
2023/07/31 06:55:51;;;;;;;10.18;5.07;;;;;;;;;;5009683;28;20341;-72
2023/07/31 06:58:18;;;;;;;9.50;4.63;;;;;;;;;;5008640;28;20056;-72
2023/07/31 07:00:44;;;;;;;14.15;4.55;;;;;;;;;;5009180;28;20049;-73
2023/07/31 07:03:10;;;;;;;11.52;4.18;;;;;;;;;;5009107;28;20061;-73
2023/07/31 07:05:36;;;;;;;9.63;3.90;;;;;;;;;;5008945;28;20030;-73
2023/07/31 07:08:02;;;;;;;7.13;3.60;;;;;;;;;;5008863;28;20475;-72
2023/07/31 07:10:28;;;;;;;9.15;4.13;;;;;;;;;;5009268;28;20148;-71
2023/07/31 07:12:55;;;;;;;7.53;3.50;;;;;;;;;;5009912;28;20061;-71
2023/07/31 07:15:22;;;;;;;7.35;3.28;;;;;;;;;;5010704;28;20086;-72
2023/07/31 07:17:48;;;;;;;7.53;3.38;;;;;;;;;;5010512;28;20069;-72
2023/07/31 07:20:14;;;;;;;6.93;2.75;;;;;;;;;;5009601;28;20034;-72
2023/07/31 07:22:42;;;;;;;3.53;2.00;;;;;;;;;;5010292;28;20076;-73
2023/07/31 07:25:09;;;;;;;6.60;2.83;;;;;;;;;;4992398;28;20488;-72
2023/07/31 07:27:36;;;;;;;5.40;2.45;;;;;;;;;;5011305;28;20134;-72
2023/07/31 07:30:02;;;;;;;5.97;3.00;;;;;;;;;;5010807;28;20062;-72
2023/07/31 07:32:28;;;;;;;5.38;2.47;;;;;;;;;;5010297;28;20062;-73
2023/07/31 07:34:54;;;;;;;3.75;1.85;;;;;;;;;;5009877;28;20065;-72
2023/07/31 07:37:20;;;;;;;5.97;2.50;;;;;;;;;;5009873;28;20040;-72
2023/07/31 07:39:46;;;;;;;5.45;2.35;;;;;;;;;;5010085;28;20033;-72
2023/07/31 07:42:12;;;;;;;4.45;1.85;;;;;;;;;;5010069;28;20033;-73
2023/07/31 07:44:38;;;;;;;3.53;1.80;;;;;;;;;;5009768;28;20072;-73
2023/07/31 07:47:05;;;;;;;4.95;2.08;;;;;;;;;;5009947;28;20026;-73
2023/07/31 07:49:32;;;;;;;5.47;2.47;;;;;;;;;;5009826;28;20473;-73
2023/07/31 07:51:58;;;;;;;3.40;1.80;;;;;;;;;;5009693;28;20100;-72
2023/07/31 07:54:24;;;;;;;5.40;1.63;;;;;;;;;;5009812;28;20057;-73
2023/07/31 07:56:50;;;;;;;3.97;1.70;;;;;;;;;;5009323;28;20030;-72
2023/07/31 07:59:16;;;;;;;3.65;1.88;;;;;;;;;;5009484;28;20077;-71
2023/07/31 08:01:42;;;;;;;5.53;2.10;;;;;;;;;;5010070;28;20026;-72
2023/07/31 08:04:08;;;;;;;2.47;1.23;;;;;;;;;;5010308;28;20377;-71
2023/07/31 08:06:35;;;;;;;2.85;1.33;;;;;;;;;;5009940;28;20475;-72
2023/07/31 08:09:06;;;;;;;4.20;1.70;;;;;;;;;;5009159;28;20030;-73
2023/07/31 08:11:32;;;;;;;3.58;1.73;;;;;;;;;;4991675;28;20484;-72
2023/07/31 08:13:58;;;;;;;4.40;1.77;;;;;;;;;;5009631;28;20476;-73
2023/07/31 08:16:24;;;;;;;3.22;1.50;;;;;;;;;;5008982;28;20034;-73
2023/07/31 08:18:50;;;;;;;3.53;1.90;;;;;;;;;;4992032;28;20518;-73
2023/07/31 08:21:16;;;;;;;3.58;2.03;;;;;;;;;;5009195;28;20047;-72
2023/07/31 08:23:42;;;;;;;3.95;1.95;;;;;;;;;;4992054;28;20041;-71
2023/07/31 08:26:08;;;;;;;4.18;2.38;;;;;;;;;;5009608;28;20105;-72
2023/07/31 08:28:36;;;;;;;4.30;2.40;;;;;;;;;;5009656;28;20054;-73
2023/07/31 08:31:02;;;;;;;3.08;2.00;;;;;;;;;;5009220;28;20061;-72
2023/07/31 08:33:28;;;;;;;5.10;2.92;;;;;;;;;;5008938;28;20404;-74
2023/07/31 08:35:54;;;;;;;4.55;2.13;;;;;;;;;;5008879;28;20088;-73
2023/07/31 08:38:20;;;;;;;5.45;2.88;;;;;;;;;;5009144;28;20044;-72
2023/07/31 08:40:46;;;;;;;4.55;2.38;;;;;;;;;;5008902;28;20474;-74
2023/07/31 08:43:12;;;;;;;5.90;3.10;;;;;;;;;;5008917;28;20109;-72
2023/07/31 08:45:39;;;;;;;6.03;3.70;;;;;;;;;;5008872;28;20368;-72
2023/07/31 08:48:05;;;;;;;5.38;3.30;;;;;;;;;;5012560;28;20056;-73
2023/07/31 08:50:31;;;;;;;5.25;2.72;;;;;;;;;;5013397;28;20061;-74
2023/07/31 08:52:57;;;;;;;4.97;3.70;;;;;;;;;;5012127;28;20034;-73
2023/07/31 08:55:25;;;;;;;4.13;2.25;;;;;;;;;;5013494;28;20065;-72
2023/07/31 08:57:53;;;;;;;9.85;4.70;;;;;;;;;;5012337;28;20061;-73
2023/07/31 09:00:21;;;;;;;4.75;2.38;;;;;;;;;;5012966;28;20022;-72
2023/07/31 09:02:49;;;;;;;5.82;3.92;;;;;;;;;;5013007;28;20091;-74
2023/07/31 09:05:16;;;;;;;5.30;3.30;;;;;;;;;;5012693;28;20026;-74
2023/07/31 09:07:46;;;;;;;5.35;3.47;;;;;;;;;;5013207;28;20044;-73
2023/07/31 09:10:12;;;;;;;6.38;4.60;;;;;;;;;;5013072;28;20068;-73
2023/07/31 09:12:39;;;;;;;5.97;4.35;;;;;;;;;;5012523;28;20076;-74
2023/07/31 09:15:05;;;;;;;5.82;3.13;;;;;;;;;;5012532;28;20026;-72
2023/07/31 09:17:32;;;;;;;5.22;2.92;;;;;;;;;;5012606;28;20447;-72
2023/07/31 09:19:58;;;;;;;3.80;2.97;;;;;;;;;;4995246;28;20116;-73
2023/07/31 09:22:35;;;;;;;5.93;4.30;;;;;;;;;;5012656;28;20026;-73
2023/07/31 09:25:19;;;;;;;6.03;4.70;;;;;;;;;;5012246;28;20083;-72
2023/07/31 09:27:52;;;;;;;9.20;5.25;;;;;;;;;;5012710;28;20443;-73
2023/07/31 09:30:19;;;;;;;7.60;5.15;;;;;;;;;;5011750;28;20400;-71
2023/07/31 09:32:45;;;;;;;6.45;4.45;;;;;;;;;;5012268;28;20014;-73
2023/07/31 09:35:21;;;;;;;6.85;4.85;;;;;;;;;;5012516;28;20022;-72
2023/07/31 09:37:56;;;;;;;7.85;6.72;;;;;;;;;;5011520;28;20040;-70
2023/07/31 09:40:32;;;;;;;9.32;6.22;;;;;;;;;;4994844;28;20030;-72
2023/07/31 09:42:59;;;;;;;8.10;6.05;;;;;;;;;;5011941;28;20047;-71
2023/07/31 09:45:25;;;;;;;9.07;6.70;;;;;;;;;;5013124;28;20381;-72
2023/07/31 09:47:51;;;;;;;9.07;7.22;;;;;;;;;;5012365;28;20441;-71
2023/07/31 09:50:17;;;;;;;8.10;5.03;;;;;;;;;;5012373;28;20148;-72
2023/07/31 09:52:43;;;;;;;10.45;8.15;;;;;;;;;;5011598;28;20873;-71
2023/07/31 09:55:10;;;;;;;13.18;8.90;;;;;;;;;;5011852;28;20076;-72
2023/07/31 09:57:46;;;;;;;7.95;4.57;;;;;;;;;;5011764;28;20050;-71
2023/07/31 10:00:13;;;;;;;12.98;9.10;;;;;;;;;;5011211;28;20030;-72
2023/07/31 10:02:42;;;;;;;12.60;8.23;;;;;;;;;;5011511;28;20026;-71
2023/07/31 10:05:08;;;;;;;12.18;9.70;;;;;;;;;;5011283;28;20514;-71
2023/07/31 10:07:41;;;;;;;12.98;10.63;;;;;;;;;;5011630;28;20030;-71
2023/07/31 10:10:09;;;;;;;10.60;8.85;;;;;;;;;;5011510;28;20101;-72
2023/07/31 10:12:36;;;;;;;11.63;8.93;;;;;;;;;;5011104;28;20033;-71
2023/07/31 10:15:02;;;;;;;13.98;11.50;;;;;;;;;;5011791;28;20431;-72
2023/07/31 10:17:29;;;;;;;13.02;10.45;;;;;;;;;;5011366;28;20030;-71
2023/07/31 10:19:57;;;;;;;16.00;10.95;;;;;;;;;;5011755;28;20101;-72
2023/07/31 10:22:23;;;;;;;10.50;8.13;;;;;;;;;;5011058;28;20053;-72
2023/07/31 10:24:50;;;;;;;12.18;9.27;;;;;;;;;;5011352;28;20022;-73
2023/07/31 10:27:16;;;;;;;10.68;6.75;;;;;;;;;;5011576;28;20029;-72
2023/07/31 10:29:44;;;;;;;11.85;9.18;;;;;;;;;;5010745;28;20444;-70
2023/07/31 10:32:11;;;;;;;17.05;11.82;;;;;;;;;;5010689;28;20022;-71
2023/07/31 10:34:38;;;;;;;14.13;11.10;;;;;;;;;;5011282;28;20101;-71
2023/07/31 10:37:22;;;;;;;15.27;12.27;;;;;;;;;;5010700;28;20105;-70
2023/07/31 10:39:55;;;;;;;15.25;12.43;;;;;;;;;;4993647;28;20432;-71
2023/07/31 10:42:27;;;;;;;17.08;11.30;;;;;;;;;;5010797;28;20452;-72
2023/07/31 10:44:56;;;;;;;12.82;9.45;;;;;;;;;;5011260;28;20057;-71
2023/07/31 10:47:22;;;;;;;14.52;9.52;;;;;;;;;;5010332;28;20428;-72
2023/07/31 10:49:49;;;;;;;15.65;9.50;;;;;;;;;;5010719;28;20026;-70
2023/07/31 10:52:22;;;;;;;9.10;7.05;;;;;;;;;;4993565;28;20033;-72
2023/07/31 10:54:48;;;;;;;9.30;6.82;;;;;;;;;;5010291;28;20026;-73
2023/07/31 10:57:21;;;;;;;16.73;9.32;;;;;;;;;;5010547;28;20071;-71
2023/07/31 10:59:47;;;;;;;10.18;8.95;;;;;;;;;;4993162;28;20087;-73
2023/07/31 11:02:31;;;;;;;16.63;9.55;;;;;;;;;;5010954;28;20061;-71
2023/07/31 11:05:07;;;;;;;12.48;9.68;;;;;;;;;;5011255;28;20431;-71
2023/07/31 11:07:50;;;;;;;9.55;7.38;;;;;;;;;;4992624;28;20717;-74
2023/07/31 11:10:19;;;;;;;13.20;9.65;;;;;;;;;;5008538;28;20076;-72
2023/07/31 11:12:46;;;;;;;11.77;9.57;;;;;;;;;;5009018;28;20022;-72
2023/07/31 11:15:13;;;;;;;13.60;8.32;;;;;;;;;;5008493;28;20022;-73
2023/07/31 11:17:39;;;;;;;14.13;9.32;;;;;;;;;;5007900;28;20661;-73
2023/07/31 11:20:07;;;;;;;13.45;9.77;;;;;;;;;;5008770;28;20036;-73
2023/07/31 11:22:33;;;;;;;15.48;9.55;;;;;;;;;;4991749;28;20451;-71
2023/07/31 11:24:59;;;;;;;8.77;5.55;;;;;;;;;;5009661;28;20055;-72
2023/07/31 11:27:28;;;;;;;9.88;8.15;;;;;;;;;;5010742;28;20034;-72
2023/07/31 11:30:00;;;;;;;7.63;5.63;;;;;;;;;;5009862;28;20022;-73
2023/07/31 11:32:26;;;;;;;9.50;7.50;;;;;;;;;;5009894;28;20380;-73
2023/07/31 11:34:56;;;;;;;10.07;7.18;;;;;;;;;;4992218;28;20037;-73
2023/07/31 11:37:21;;;;;;;11.33;9.00;;;;;;;;;;5009786;28;20030;-72
2023/07/31 11:40:00;;;;;;;13.45;8.95;;;;;;;;;;5009857;28;20112;-72
2023/07/31 11:42:26;;;;;;;10.70;8.52;;;;;;;;;;5010102;28;20025;-70
2023/07/31 11:44:52;;;;;;;10.38;7.63;;;;;;;;;;5009774;28;20021;-71
2023/07/31 11:47:18;;;;;;;8.55;6.13;;;;;;;;;;5009872;28;20028;-72
2023/07/31 11:49:44;;;;;;;10.55;5.85;;;;;;;;;;5009410;28;20026;-72
2023/07/31 11:52:12;;;;;;;9.68;7.45;;;;;;;;;;5009959;28;20064;-73
2023/07/31 11:54:39;;;;;;;12.30;8.15;;;;;;;;;;4992524;28;20037;-73
2023/07/31 11:57:05;;;;;;;15.05;9.32;;;;;;;;;;5008991;28;20961;-74
2023/07/31 11:59:31;;;;;;;9.15;7.63;;;;;;;;;;5010164;28;20033;-73
2023/07/31 12:01:57;;;;;;;8.15;5.97;;;;;;;;;;5009991;28;20030;-72
2023/07/31 12:04:25;;;;;;;12.25;9.20;;;;;;;;;;4992758;28;20900;-72
2023/07/31 12:06:53;;;;;;;12.30;8.85;;;;;;;;;;5011336;28;20083;-73
2023/07/31 12:09:19;;;;;;;12.82;7.47;;;;;;;;;;5010364;28;20376;-73
2023/07/31 12:11:48;;;;;;;10.25;8.32;;;;;;;;;;5009611;28;20038;-73
2023/07/31 12:14:31;;;;;;;13.43;7.47;;;;;;;;;;5009659;28;20092;-75
2023/07/31 12:17:04;;;;;;;9.98;5.97;;;;;;;;;;5009878;28;20022;-74
2023/07/31 12:19:30;;;;;;;13.65;8.05;;;;;;;;;;5009349;28;20038;-73
2023/07/31 12:21:57;;;;;;;9.85;6.40;;;;;;;;;;5009031;28;20065;-73
2023/07/31 12:24:23;;;;;;;11.77;7.75;;;;;;;;;;5009275;28;20022;-73
2023/07/31 12:26:49;;;;;;;8.80;5.40;;;;;;;;;;5009055;28;20066;-70
2023/07/31 12:29:15;;;;;;;9.32;5.07;;;;;;;;;;5008421;28;20026;-72
2023/07/31 12:31:42;;;;;;;8.90;6.15;;;;;;;;;;5009511;28;20109;-72
2023/07/31 12:34:18;;;;;;;9.45;7.15;;;;;;;;;;5009442;28;20064;-74
2023/07/31 12:36:44;;;;;;;6.90;3.85;;;;;;;;;;5009337;28;20504;-72
2023/07/31 12:39:11;;;;;;;9.07;6.20;;;;;;;;;;5009236;28;20076;-73
2023/07/31 12:41:37;;;;;;;10.27;8.18;;;;;;;;;;5009465;28;20072;-73
2023/07/31 12:44:03;;;;;;;8.50;4.85;;;;;;;;;;5007224;28;20518;-73
2023/07/31 12:46:29;;;;;;;9.57;7.18;;;;;;;;;;5009036;28;20030;-73
2023/07/31 12:48:55;;;;;;;6.28;4.25;;;;;;;;;;5009214;28;20412;-72
2023/07/31 12:51:21;;;;;;;11.10;7.97;;;;;;;;;;5007540;28;20659;-73
2023/07/31 12:53:48;;;;;;;11.13;6.80;;;;;;;;;;5009186;28;20476;-72
2023/07/31 12:56:13;;;;;;;9.55;6.85;;;;;;;;;;5008977;28;20528;-71
2023/07/31 12:58:39;;;;;;;12.70;9.52;;;;;;;;;;5008093;28;20109;-72
2023/07/31 13:01:06;;;;;;;14.20;10.23;;;;;;;;;;5008066;28;20030;-72
2023/07/31 13:03:33;;;;;;;10.00;7.75;;;;;;;;;;5007911;28;20030;-74
2023/07/31 13:05:59;;;;;;;12.57;9.80;;;;;;;;;;5008562;28;20381;-74
2023/07/31 13:08:25;;;;;;;8.80;5.03;;;;;;;;;;5008366;28;20495;-72
2023/07/31 13:10:51;;;;;;;9.93;7.40;;;;;;;;;;5006835;28;20029;-74
2023/07/31 13:13:17;;;;;;;7.15;4.32;;;;;;;;;;5006827;28;20134;-74
2023/07/31 13:15:45;;;;;;;8.48;5.60;;;;;;;;;;5007526;28;20573;-74
2023/07/31 13:18:10;;;;;;;10.05;7.50;;;;;;;;;;5005850;28;20127;-73
2023/07/31 13:20:36;;;;;;;12.95;9.20;;;;;;;;;;5006013;28;20562;-72
2023/07/31 13:23:02;;;;;;;10.57;7.15;;;;;;;;;;5005043;28;20443;-73
2023/07/31 13:25:28;;;;;;;12.32;7.78;;;;;;;;;;5005983;28;20491;-72
2023/07/31 13:27:56;;;;;;;11.73;9.73;;;;;;;;;;5007208;28;20034;-72
2023/07/31 13:30:22;;;;;;;9.68;7.25;;;;;;;;;;5006535;28;20029;-72
2023/07/31 13:32:48;;;;;;;14.48;9.85;;;;;;;;;;5006965;28;20148;-72
2023/07/31 13:35:14;;;;;;;11.93;9.00;;;;;;;;;;5011601;28;20109;-72
2023/07/31 13:37:40;;;;;;;10.00;7.82;;;;;;;;;;5012209;28;20038;-72
2023/07/31 13:40:06;;;;;;;9.75;7.15;;;;;;;;;;5011927;28;20022;-72
2023/07/31 13:42:32;;;;;;;11.00;8.20;;;;;;;;;;5011773;28;20026;-72
2023/07/31 13:44:58;;;;;;;11.95;8.57;;;;;;;;;;5012063;28;20083;-72
2023/07/31 13:47:25;;;;;;;11.18;8.35;;;;;;;;;;5011877;28;20057;-69
2023/07/31 13:49:51;;;;;;;9.68;5.55;;;;;;;;;;4994575;28;20041;-72
2023/07/31 13:52:17;;;;;;;10.13;7.78;;;;;;;;;;5011807;28;20395;-72
2023/07/31 13:54:43;;;;;;;8.13;5.68;;;;;;;;;;5011960;28;20037;-72
2023/07/31 13:57:09;;;;;;;10.70;6.25;;;;;;;;;;5011557;28;20026;-73
2023/07/31 13:59:35;;;;;;;9.07;5.85;;;;;;;;;;5011391;28;20042;-72
2023/07/31 14:02:03;;;;;;;8.85;6.95;;;;;;;;;;5012406;28;20080;-72
2023/07/31 14:04:30;;;;;;;8.43;5.50;;;;;;;;;;5011770;28;20100;-72
2023/07/31 14:06:56;;;;;;;10.73;7.22;;;;;;;;;;5011955;28;20049;-71
2023/07/31 14:09:22;;;;;;;8.15;5.25;;;;;;;;;;5012093;28;20061;-73
2023/07/31 14:11:48;;;;;;;9.18;5.40;;;;;;;;;;5012110;28;20038;-72
2023/07/31 14:14:14;;;;;;;9.90;5.70;;;;;;;;;;5011172;28;20034;-73
2023/07/31 14:16:41;;;;;;;7.68;4.78;;;;;;;;;;5010603;28;20468;-74
2023/07/31 14:19:08;;;;;;;9.80;6.95;;;;;;;;;;5011933;28;20048;-74
2023/07/31 14:21:34;;;;;;;13.05;7.93;;;;;;;;;;4994445;28;20041;-72
2023/07/31 14:24:00;;;;;;;12.88;8.25;;;;;;;;;;5011657;28;20018;-72
2023/07/31 14:26:26;;;;;;;9.75;5.07;;;;;;;;;;5011287;28;20080;-73
2023/07/31 14:28:52;;;;;;;11.57;6.50;;;;;;;;;;5011032;28;20080;-72
2023/07/31 14:31:18;;;;;;;12.30;6.90;;;;;;;;;;5011441;28;20057;-71